sensor_id;sensor_type;location;lat;lon;timestamp;pressure;altitude;pressure_sealevel;temperature;humidity
69842;BME280;57138;51.326;-0.068;2023-05-03T00:01:32;100970.72;;;7.06;69.72
69842;BME280;57138;51.326;-0.068;2023-05-03T00:03:57;100970.28;;;7.01;70.16
69842;BME280;57138;51.326;-0.068;2023-05-03T00:06:22;100978.28;;;7.01;70.71
69842;BME280;57138;51.326;-0.068;2023-05-03T00:08:48;100978.28;;;7.01;71.08
69842;BME280;57138;51.326;-0.068;2023-05-03T00:11:13;100969.63;;;6.99;70.97
69842;BME280;57138;51.326;-0.068;2023-05-03T00:13:39;100973.97;;;7.00;70.66
69842;BME280;57138;51.326;-0.068;2023-05-03T00:16:05;100965.56;;;6.95;70.62
69842;BME280;57138;51.326;-0.068;2023-05-03T00:18:31;100964.88;;;6.93;70.50
69842;BME280;57138;51.326;-0.068;2023-05-03T00:20:59;100961.53;;;6.91;71.12
69842;BME280;57138;51.326;-0.068;2023-05-03T00:23:25;100968.50;;;6.92;71.14
69842;BME280;57138;51.326;-0.068;2023-05-03T00:25:56;100963.19;;;6.92;70.97
69842;BME280;57138;51.326;-0.068;2023-05-03T00:28:23;100963.19;;;6.92;70.87
69842;BME280;57138;51.326;-0.068;2023-05-03T00:30:48;100961.53;;;6.91;71.24
69842;BME280;57138;51.326;-0.068;2023-05-03T00:33:14;100959.84;;;6.90;70.96
69842;BME280;57138;51.326;-0.068;2023-05-03T00:35:43;100961.44;;;6.82;71.86
69842;BME280;57138;51.326;-0.068;2023-05-03T00:38:09;100956.41;;;6.79;71.71
69842;BME280;57138;51.326;-0.068;2023-05-03T00:40:35;100953.75;;;6.79;71.63
69842;BME280;57138;51.326;-0.068;2023-05-03T00:43:01;100957.38;;;6.78;71.70
69842;BME280;57138;51.326;-0.068;2023-05-03T00:45:26;100955.69;;;6.77;71.75
69842;BME280;57138;51.326;-0.068;2023-05-03T00:47:53;100961.88;;;6.78;72.01
69842;BME280;57138;51.326;-0.068;2023-05-03T00:50:18;100956.84;;;6.75;71.89
69842;BME280;57138;51.326;-0.068;2023-05-03T00:52:45;100952.38;;;6.75;71.71
69842;BME280;57138;51.326;-0.068;2023-05-03T00:55:10;100953.78;;;6.70;71.96
69842;BME280;57138;51.326;-0.068;2023-05-03T00:57:36;100950.44;;;6.68;71.83
69842;BME280;57138;51.326;-0.068;2023-05-03T01:00:01;100951.25;;;6.68;71.59
69842;BME280;57138;51.326;-0.068;2023-05-03T01:02:27;100956.84;;;6.65;72.04
69842;BME280;57138;51.326;-0.068;2023-05-03T01:04:54;100952.94;;;6.69;72.46
69842;BME280;57138;51.326;-0.068;2023-05-03T01:10:21;100950.56;;;6.66;72.67
69842;BME280;57138;51.326;-0.068;2023-05-03T01:13:13;100939.56;;;6.61;72.50
69842;BME280;57138;51.326;-0.068;2023-05-03T01:18:37;100945.84;;;6.60;72.18
69842;BME280;57138;51.326;-0.068;2023-05-03T01:21:05;100946.81;;;6.59;72.34
69842;BME280;57138;51.326;-0.068;2023-05-03T01:26:20;100944.44;;;6.56;72.21
69842;BME280;57138;51.326;-0.068;2023-05-03T01:28:46;100944.72;;;6.53;72.09
69842;BME280;57138;51.326;-0.068;2023-05-03T01:31:17;100939.69;;;6.50;72.61
69842;BME280;57138;51.326;-0.068;2023-05-03T01:34:25;100937.03;;;6.50;72.44
69842;BME280;57138;51.326;-0.068;2023-05-03T01:36:43;100932.16;;;6.45;72.35
69842;BME280;57138;51.326;-0.068;2023-05-03T01:39:20;100935.41;;;6.48;72.44
69842;BME280;57138;51.326;-0.068;2023-05-03T01:41:49;100940.84;;;6.47;72.57
69842;BME280;57138;51.326;-0.068;2023-05-03T01:44:19;100934.13;;;6.43;73.08
69842;BME280;57138;51.326;-0.068;2023-05-03T01:46:45;100934.28;;;6.41;72.71
69842;BME280;57138;51.326;-0.068;2023-05-03T01:49:12;100941.28;;;6.42;72.81
69842;BME280;57138;51.326;-0.068;2023-05-03T01:51:37;100932.59;;;6.40;73.15
69842;BME280;57138;51.326;-0.068;2023-05-03T01:54:03;100932.59;;;6.40;73.13
69842;BME280;57138;51.326;-0.068;2023-05-03T01:56:29;100932.88;;;6.37;73.43
69842;BME280;57138;51.326;-0.068;2023-05-03T01:58:55;100920.03;;;6.33;73.06
69842;BME280;57138;51.326;-0.068;2023-05-03T02:01:20;100939.34;;;6.35;74.00
69842;BME280;57138;51.326;-0.068;2023-05-03T02:03:46;100929.97;;;6.30;73.77
69842;BME280;57138;51.326;-0.068;2023-05-03T02:06:11;100929.00;;;6.32;73.98
69842;BME280;57138;51.326;-0.068;2023-05-03T02:08:36;100921.47;;;6.27;74.01
69842;BME280;57138;51.326;-0.068;2023-05-03T02:11:02;100923.84;;;6.30;74.16
69842;BME280;57138;51.326;-0.068;2023-05-03T02:13:27;100923.44;;;6.25;73.42
69842;BME280;57138;51.326;-0.068;2023-05-03T02:15:52;100914.75;;;6.23;74.08
69842;BME280;57138;51.326;-0.068;2023-05-03T02:18:19;100923.84;;;6.20;73.75
69842;BME280;57138;51.326;-0.068;2023-05-03T02:20:46;100927.34;;;6.21;74.41
69842;BME280;57138;51.326;-0.068;2023-05-03T02:23:11;100925.66;;;6.20;74.62
69842;BME280;57138;51.326;-0.068;2023-05-03T02:25:37;100935.44;;;6.19;74.27
69842;BME280;57138;51.326;-0.068;2023-05-03T02:28:02;100936.56;;;6.17;74.16
69842;BME280;57138;51.326;-0.068;2023-05-03T02:30:28;100931.53;;;6.14;74.77
69842;BME280;57138;51.326;-0.068;2023-05-03T02:32:53;100937.97;;;6.11;74.44
69842;BME280;57138;51.326;-0.068;2023-05-03T02:35:19;100933.25;;;6.05;74.32
69842;BME280;57138;51.326;-0.068;2023-05-03T02:37:45;100929.59;;;6.06;75.25
69842;BME280;57138;51.326;-0.068;2023-05-03T02:40:10;100928.22;;;6.02;75.03
69842;BME280;57138;51.326;-0.068;2023-05-03T02:42:36;100931.00;;;6.00;75.28
69842;BME280;57138;51.326;-0.068;2023-05-03T02:45:01;100932.94;;;5.98;75.41
69842;BME280;57138;51.326;-0.068;2023-05-03T02:47:27;100927.78;;;5.97;75.73
69842;BME280;57138;51.326;-0.068;2023-05-03T02:49:52;100927.78;;;5.97;75.39
69842;BME280;57138;51.326;-0.068;2023-05-03T02:52:18;100920.91;;;5.94;75.34
69842;BME280;57138;51.326;-0.068;2023-05-03T02:54:43;100924.16;;;5.98;75.12
69842;BME280;57138;51.326;-0.068;2023-05-03T02:57:10;100918.97;;;5.96;76.04
69842;BME280;57138;51.326;-0.068;2023-05-03T02:59:36;100915.38;;;5.97;75.73
69842;BME280;57138;51.326;-0.068;2023-05-03T03:02:01;100920.91;;;5.94;76.25
69842;BME280;57138;51.326;-0.068;2023-05-03T03:04:26;100918.25;;;5.94;75.88
69842;BME280;57138;51.326;-0.068;2023-05-03T03:06:52;100912.53;;;5.89;75.61
69842;BME280;57138;51.326;-0.068;2023-05-03T03:09:18;100906.81;;;5.84;75.77
69842;BME280;57138;51.326;-0.068;2023-05-03T03:11:44;100906.94;;;5.82;76.24
69842;BME280;57138;51.326;-0.068;2023-05-03T03:14:09;100905.41;;;5.80;76.00
69842;BME280;57138;51.326;-0.068;2023-05-03T03:16:34;100903.06;;;5.76;75.95
69842;BME280;57138;51.326;-0.068;2023-05-03T03:19:00;100903.63;;;5.70;76.70
69842;BME280;57138;51.326;-0.068;2023-05-03T03:21:25;100908.94;;;5.70;75.94
69842;BME280;57138;51.326;-0.068;2023-05-03T03:23:53;100896.91;;;5.66;76.54
69842;BME280;57138;51.326;-0.068;2023-05-03T03:26:18;100898.88;;;5.64;76.41
69842;BME280;57138;51.326;-0.068;2023-05-03T03:28:44;100906.09;;;5.62;76.97
69842;BME280;57138;51.326;-0.068;2023-05-03T03:31:09;100900.25;;;5.58;76.64
69842;BME280;57138;51.326;-0.068;2023-05-03T03:33:34;100890.47;;;5.59;77.16
69842;BME280;57138;51.326;-0.068;2023-05-03T03:36:00;100881.81;;;5.57;77.37
69842;BME280;57138;51.326;-0.068;2023-05-03T03:38:26;100887.81;;;5.59;77.57
69842;BME280;57138;51.326;-0.068;2023-05-03T03:40:51;100891.19;;;5.61;77.86
69842;BME280;57138;51.326;-0.068;2023-05-03T03:43:18;100885.16;;;5.59;77.69
69842;BME280;57138;51.326;-0.068;2023-05-03T03:45:47;100887.13;;;5.57;77.27
69842;BME280;57138;51.326;-0.068;2023-05-03T03:48:15;100881.28;;;5.53;77.78
69842;BME280;57138;51.326;-0.068;2023-05-03T03:50:41;100881.28;;;5.53;77.50
69842;BME280;57138;51.326;-0.068;2023-05-03T03:53:06;100877.91;;;5.51;77.52
69842;BME280;57138;51.326;-0.068;2023-05-03T03:55:33;100875.66;;;5.47;77.71
69842;BME280;57138;51.326;-0.068;2023-05-03T03:57:58;100879.19;;;5.47;77.77
69842;BME280;57138;51.326;-0.068;2023-05-03T04:00:24;100867.84;;;5.45;78.14
69842;BME280;57138;51.326;-0.068;2023-05-03T04:02:49;100875.94;;;5.44;78.07
69842;BME280;57138;51.326;-0.068;2023-05-03T04:05:15;100868.13;;;5.42;77.97
69842;BME280;57138;51.326;-0.068;2023-05-03T04:07:40;100861.16;;;5.41;78.06
69842;BME280;57138;51.326;-0.068;2023-05-03T04:10:06;100862.81;;;5.42;79.21
69842;BME280;57138;51.326;-0.068;2023-05-03T04:12:32;100855.72;;;5.43;78.27
69842;BME280;57138;51.326;-0.068;2023-05-03T04:14:58;100862.00;;;5.42;79.15
69842;BME280;57138;51.326;-0.068;2023-05-03T04:17:23;100854.31;;;5.38;78.59
69842;BME280;57138;51.326;-0.068;2023-05-03T04:19:48;100854.31;;;5.38;78.93
69842;BME280;57138;51.326;-0.068;2023-05-03T04:22:14;100855.28;;;5.37;78.50
69842;BME280;57138;51.326;-0.068;2023-05-03T04:24:39;100854.31;;;5.38;79.32
69842;BME280;57138;51.326;-0.068;2023-05-03T04:27:05;100858.06;;;5.36;79.48
69842;BME280;57138;51.326;-0.068;2023-05-03T04:29:32;100851.94;;;5.35;79.01
69842;BME280;57138;51.326;-0.068;2023-05-03T04:31:58;100841.63;;;5.32;79.11
69842;BME280;57138;51.326;-0.068;2023-05-03T04:34:25;100852.78;;;5.36;79.37
69842;BME280;57138;51.326;-0.068;2023-05-03T04:36:50;100848.47;;;5.35;79.26
69842;BME280;57138;51.326;-0.068;2023-05-03T04:39:16;100852.22;;;5.32;79.39
69842;BME280;57138;51.326;-0.068;2023-05-03T04:41:41;100830.47;;;5.29;79.90
69842;BME280;57138;51.326;-0.068;2023-05-03T04:44:07;100841.34;;;5.35;79.60
69842;BME280;57138;51.326;-0.068;2023-05-03T04:46:32;100831.16;;;5.31;80.13
69842;BME280;57138;51.326;-0.068;2023-05-03T04:48:58;100843.16;;;5.35;79.78
69842;BME280;57138;51.326;-0.068;2023-05-03T04:51:23;100828.78;;;5.28;80.18
69842;BME280;57138;51.326;-0.068;2023-05-03T04:53:49;100833.66;;;5.32;80.16
69842;BME280;57138;51.326;-0.068;2023-05-03T04:56:14;100845.81;;;5.35;80.20
69842;BME280;57138;51.326;-0.068;2023-05-03T04:58:40;100846.63;;;5.35;80.18
69842;BME280;57138;51.326;-0.068;2023-05-03T05:01:06;100850.97;;;5.36;80.90
69842;BME280;57138;51.326;-0.068;2023-05-03T05:03:31;100844.94;;;5.34;80.99
69842;BME280;57138;51.326;-0.068;2023-05-03T05:05:57;100860.59;;;5.37;80.75
69842;BME280;57138;51.326;-0.068;2023-05-03T05:08:22;100857.78;;;5.39;80.53
69842;BME280;57138;51.326;-0.068;2023-05-03T05:10:48;100858.66;;;5.39;80.28
69842;BME280;57138;51.326;-0.068;2023-05-03T05:13:14;100860.31;;;5.40;80.22
69842;BME280;57138;51.326;-0.068;2023-05-03T05:15:39;100857.78;;;5.39;80.68
69842;BME280;57138;51.326;-0.068;2023-05-03T05:18:05;100855.88;;;5.41;80.64
69842;BME280;57138;51.326;-0.068;2023-05-03T05:20:30;100860.75;;;5.46;80.81
69842;BME280;57138;51.326;-0.068;2023-05-03T05:22:56;100867.16;;;5.53;80.50
69842;BME280;57138;51.326;-0.068;2023-05-03T05:25:21;100870.09;;;5.60;80.45
69842;BME280;57138;51.326;-0.068;2023-05-03T05:27:46;100865.91;;;5.67;80.61
69842;BME280;57138;51.326;-0.068;2023-05-03T05:30:12;100875.66;;;5.76;80.14
69842;BME280;57138;51.326;-0.068;2023-05-03T05:32:37;100881.97;;;5.85;80.36
69842;BME280;57138;51.326;-0.068;2023-05-03T05:35:03;100877.59;;;5.93;80.49
69842;BME280;57138;51.326;-0.068;2023-05-03T05:37:30;100879.84;;;5.98;80.23
69842;BME280;57138;51.326;-0.068;2023-05-03T05:39:55;100885.59;;;6.03;80.66
69842;BME280;57138;51.326;-0.068;2023-05-03T05:42:21;100879.56;;;6.11;80.27
69842;BME280;57138;51.326;-0.068;2023-05-03T05:44:46;100880.81;;;6.17;80.28
69842;BME280;57138;51.326;-0.068;2023-05-03T05:47:12;100883.16;;;6.20;79.80
69842;BME280;57138;51.326;-0.068;2023-05-03T05:49:37;100893.50;;;6.23;79.89
69842;BME280;57138;51.326;-0.068;2023-05-03T05:52:02;100884.28;;;6.27;79.91
69842;BME280;57138;51.326;-0.068;2023-05-03T05:54:28;100889.31;;;6.30;80.03
69842;BME280;57138;51.326;-0.068;2023-05-03T05:56:53;100900.03;;;6.38;79.86
69842;BME280;57138;51.326;-0.068;2023-05-03T05:59:19;100894.28;;;6.43;79.43
69842;BME280;57138;51.326;-0.068;2023-05-03T06:01:44;100894.53;;;6.50;80.05
69842;BME280;57138;51.326;-0.068;2023-05-03T06:04:14;100895.09;;;6.53;80.03
69842;BME280;57138;51.326;-0.068;2023-05-03T06:06:40;100896.47;;;6.57;80.35
69842;BME280;57138;51.326;-0.068;2023-05-03T06:09:06;100904.16;;;6.60;79.47
69842;BME280;57138;51.326;-0.068;2023-05-03T06:11:33;100902.75;;;6.66;79.94
69842;BME280;57138;51.326;-0.068;2023-05-03T06:13:59;100902.44;;;6.69;79.83
69842;BME280;57138;51.326;-0.068;2023-05-03T06:16:25;100916.84;;;6.76;79.83
69842;BME280;57138;51.326;-0.068;2023-05-03T06:18:50;100896.94;;;6.80;79.87
69842;BME280;57138;51.326;-0.068;2023-05-03T06:21:16;100903.06;;;6.91;80.02
69842;BME280;57138;51.326;-0.068;2023-05-03T06:23:42;100902.16;;;7.00;80.11
69842;BME280;57138;51.326;-0.068;2023-05-03T06:26:08;100908.25;;;7.10;80.24
69842;BME280;57138;51.326;-0.068;2023-05-03T06:28:34;100895.88;;;7.19;79.68
69842;BME280;57138;51.326;-0.068;2023-05-03T06:31:00;100901.41;;;7.35;80.15
69842;BME280;57138;51.326;-0.068;2023-05-03T06:33:26;100890.53;;;7.47;79.66
69842;BME280;57138;51.326;-0.068;2023-05-03T06:35:52;100896.69;;;7.65;80.00
69842;BME280;57138;51.326;-0.068;2023-05-03T06:38:17;100888.97;;;7.80;79.32
69842;BME280;57138;51.326;-0.068;2023-05-03T06:40:44;100890.94;;;7.96;78.98
69842;BME280;57138;51.326;-0.068;2023-05-03T06:43:09;100900.72;;;8.14;78.45
69842;BME280;57138;51.326;-0.068;2023-05-03T06:45:35;100892.31;;;8.26;77.92
69842;BME280;57138;51.326;-0.068;2023-05-03T06:48:00;100886.72;;;8.38;77.39
69842;BME280;57138;51.326;-0.068;2023-05-03T06:50:26;100893.16;;;8.53;76.97
69842;BME280;57138;51.326;-0.068;2023-05-03T06:52:53;100888.88;;;8.60;76.78
69842;BME280;57138;51.326;-0.068;2023-05-03T06:55:18;100891.59;;;8.77;76.17
69842;BME280;57138;51.326;-0.068;2023-05-03T06:57:44;100883.34;;;8.88;75.23
69842;BME280;57138;51.326;-0.068;2023-05-03T07:00:12;100886.38;;;9.02;75.85
69842;BME280;57138;51.326;-0.068;2023-05-03T07:02:37;100881.75;;;9.12;75.91
69842;BME280;57138;51.326;-0.068;2023-05-03T07:05:04;100875.44;;;9.21;75.29
69842;BME280;57138;51.326;-0.068;2023-05-03T07:07:31;100876.78;;;9.33;74.82
69842;BME280;57138;51.326;-0.068;2023-05-03T07:09:56;100870.97;;;9.46;74.60
69842;BME280;57138;51.326;-0.068;2023-05-03T07:12:24;100865.13;;;9.59;74.32
69842;BME280;57138;51.326;-0.068;2023-05-03T07:14:53;100868.97;;;9.73;72.49
69842;BME280;57138;51.326;-0.068;2023-05-03T07:17:19;100867.47;;;9.87;73.15
69842;BME280;57138;51.326;-0.068;2023-05-03T07:19:47;100861.13;;;9.96;71.72
69842;BME280;57138;51.326;-0.068;2023-05-03T07:22:15;100861.44;;;10.01;71.05
69842;BME280;57138;51.326;-0.068;2023-05-03T07:24:41;100853.09;;;10.04;70.28
69842;BME280;57138;51.326;-0.068;2023-05-03T07:27:06;100859.44;;;10.12;71.13
69842;BME280;57138;51.326;-0.068;2023-05-03T07:29:32;100856.38;;;10.23;69.80
69842;BME280;57138;51.326;-0.068;2023-05-03T07:31:58;100868.41;;;10.27;68.53
69842;BME280;57138;51.326;-0.068;2023-05-03T07:34:24;100860.41;;;10.35;68.59
69842;BME280;57138;51.326;-0.068;2023-05-03T07:36:50;100863.03;;;10.43;67.66
69842;BME280;57138;51.326;-0.068;2023-05-03T07:39:17;100857.88;;;10.50;67.49
69842;BME280;57138;51.326;-0.068;2023-05-03T07:41:43;100866.69;;;10.59;67.54
69842;BME280;57138;51.326;-0.068;2023-05-03T07:44:09;100862.78;;;10.70;67.27
69842;BME280;57138;51.326;-0.068;2023-05-03T07:46:34;100864.25;;;10.81;66.49
69842;BME280;57138;51.326;-0.068;2023-05-03T07:49:04;100861.53;;;10.89;66.40
69842;BME280;57138;51.326;-0.068;2023-05-03T07:51:34;100871.19;;;10.98;65.00
69842;BME280;57138;51.326;-0.068;2023-05-03T07:54:00;100865.47;;;11.01;63.52
69842;BME280;57138;51.326;-0.068;2023-05-03T07:56:26;100858.59;;;11.07;63.18
69842;BME280;57138;51.326;-0.068;2023-05-03T07:58:52;100848.38;;;11.10;63.80
69842;BME280;57138;51.326;-0.068;2023-05-03T08:01:19;100843.28;;;11.24;63.43
69842;BME280;57138;51.326;-0.068;2023-05-03T08:03:46;100849.22;;;11.34;63.28
69842;BME280;57138;51.326;-0.068;2023-05-03T08:06:16;100858.22;;;11.41;60.89
69842;BME280;57138;51.326;-0.068;2023-05-03T08:08:42;100858.88;;;11.43;61.80
69842;BME280;57138;51.326;-0.068;2023-05-03T08:11:08;100859.47;;;11.54;62.28
69842;BME280;57138;51.326;-0.068;2023-05-03T08:13:33;100864.22;;;11.66;61.43
69842;BME280;57138;51.326;-0.068;2023-05-03T08:15:58;100853.25;;;11.76;61.92
69842;BME280;57138;51.326;-0.068;2023-05-03T08:18:25;100854.47;;;11.88;60.27
69842;BME280;57138;51.326;-0.068;2023-05-03T08:20:51;100847.94;;;11.91;59.84
69842;BME280;57138;51.326;-0.068;2023-05-03T08:23:17;100851.78;;;11.97;60.61
69842;BME280;57138;51.326;-0.068;2023-05-03T08:25:43;100852.88;;;12.02;60.88
69842;BME280;57138;51.326;-0.068;2023-05-03T08:28:10;100848.81;;;12.07;60.34
69842;BME280;57138;51.326;-0.068;2023-05-03T08:30:36;100844.78;;;12.11;60.88
69842;BME280;57138;51.326;-0.068;2023-05-03T08:33:02;100842.81;;;12.19;60.69
69842;BME280;57138;51.326;-0.068;2023-05-03T08:35:28;100845.03;;;12.31;59.20
69842;BME280;57138;51.326;-0.068;2023-05-03T08:37:54;100845.78;;;12.39;59.31
69842;BME280;57138;51.326;-0.068;2023-05-03T08:40:21;100845.22;;;12.44;59.51
69842;BME280;57138;51.326;-0.068;2023-05-03T08:42:47;100849.50;;;12.53;58.69
69842;BME280;57138;51.326;-0.068;2023-05-03T08:45:15;100852.81;;;12.55;58.55
69842;BME280;57138;51.326;-0.068;2023-05-03T08:47:42;100847.44;;;12.55;59.04
69842;BME280;57138;51.326;-0.068;2023-05-03T08:50:10;100859.09;;;12.63;58.29
69842;BME280;57138;51.326;-0.068;2023-05-03T08:52:38;100852.88;;;12.77;60.11
69842;BME280;57138;51.326;-0.068;2023-05-03T08:55:05;100855.00;;;12.97;59.10
69842;BME280;57138;51.326;-0.068;2023-05-03T08:57:33;100854.78;;;12.98;59.10
69842;BME280;57138;51.326;-0.068;2023-05-03T08:59:59;100858.38;;;13.05;58.34
69842;BME280;57138;51.326;-0.068;2023-05-03T09:02:26;100849.75;;;13.10;57.18
69842;BME280;57138;51.326;-0.068;2023-05-03T09:04:53;100855.06;;;13.03;56.26
69842;BME280;57138;51.326;-0.068;2023-05-03T09:07:18;100854.13;;;12.96;57.31
69842;BME280;57138;51.326;-0.068;2023-05-03T09:09:47;100851.63;;;12.94;57.15
69842;BME280;57138;51.326;-0.068;2023-05-03T09:12:32;100842.66;;;13.02;56.83
69842;BME280;57138;51.326;-0.068;2023-05-03T09:14:58;100847.34;;;13.15;57.50
69842;BME280;57138;51.326;-0.068;2023-05-03T09:17:23;100841.84;;;13.23;57.02
69842;BME280;57138;51.326;-0.068;2023-05-03T09:19:51;100836.34;;;13.31;56.55
69842;BME280;57138;51.326;-0.068;2023-05-03T09:22:17;100830.25;;;13.38;56.05
69842;BME280;57138;51.326;-0.068;2023-05-03T09:24:58;100831.16;;;13.45;55.76
69842;BME280;57138;51.326;-0.068;2023-05-03T09:27:25;100841.22;;;13.43;56.06
69842;BME280;57138;51.326;-0.068;2023-05-03T09:29:53;100839.97;;;13.39;55.46
69842;BME280;57138;51.326;-0.068;2023-05-03T09:32:19;100840.78;;;13.39;55.47
69842;BME280;57138;51.326;-0.068;2023-05-03T09:34:47;100841.91;;;13.45;56.06
69842;BME280;57138;51.326;-0.068;2023-05-03T09:37:12;100853.41;;;13.60;56.61
69842;BME280;57138;51.326;-0.068;2023-05-03T09:39:40;100828.69;;;13.72;56.29
69842;BME280;57138;51.326;-0.068;2023-05-03T09:42:16;100835.38;;;13.82;55.75
69842;BME280;57138;51.326;-0.068;2023-05-03T09:44:47;100829.44;;;13.87;54.86
69842;BME280;57138;51.326;-0.068;2023-05-03T09:47:13;100825.56;;;13.96;55.81
69842;BME280;57138;51.326;-0.068;2023-05-03T09:49:39;100815.44;;;13.98;54.59
69842;BME280;57138;51.326;-0.068;2023-05-03T09:52:05;100826.03;;;14.07;54.77
69842;BME280;57138;51.326;-0.068;2023-05-03T09:54:35;100830.44;;;14.14;55.43
69842;BME280;57138;51.326;-0.068;2023-05-03T09:57:03;100828.81;;;14.20;54.33
69842;BME280;57138;51.326;-0.068;2023-05-03T09:59:35;100831.53;;;14.27;53.71
69842;BME280;57138;51.326;-0.068;2023-05-03T10:02:03;100824.69;;;14.24;53.43
69842;BME280;57138;51.326;-0.068;2023-05-03T10:04:50;100828.41;;;14.16;53.67
69842;BME280;57138;51.326;-0.068;2023-05-03T10:07:20;100821.94;;;14.11;53.32
69842;BME280;57138;51.326;-0.068;2023-05-03T10:09:48;100813.00;;;14.03;53.36
69842;BME280;57138;51.326;-0.068;2023-05-03T10:12:15;100817.56;;;14.10;54.23
69842;BME280;57138;51.326;-0.068;2023-05-03T10:14:51;100816.94;;;14.08;53.48
69842;BME280;57138;51.326;-0.068;2023-05-03T10:17:27;100815.88;;;14.02;52.44
69842;BME280;57138;51.326;-0.068;2023-05-03T10:20:01;100816.03;;;13.94;53.26
69842;BME280;57138;51.326;-0.068;2023-05-03T10:25:33;100814.09;;;13.81;53.80
69842;BME280;57138;51.326;-0.068;2023-05-03T10:28:07;100802.88;;;13.77;54.57
69842;BME280;57138;51.326;-0.068;2023-05-03T10:30:38;100803.81;;;13.91;53.55
69842;BME280;57138;51.326;-0.068;2023-05-03T10:33:29;100810.06;;;13.98;53.08
69842;BME280;57138;51.326;-0.068;2023-05-03T10:36:06;100808.00;;;14.00;53.12
69842;BME280;57138;51.326;-0.068;2023-05-03T10:38:36;100805.97;;;14.02;52.56
69842;BME280;57138;51.326;-0.068;2023-05-03T10:41:03;100817.75;;;14.01;52.85
69842;BME280;57138;51.326;-0.068;2023-05-03T10:46:05;100799.00;;;14.15;52.58
69842;BME280;57138;51.326;-0.068;2023-05-03T10:48:33;100792.84;;;14.21;53.28
69842;BME280;57138;51.326;-0.068;2023-05-03T10:53:56;100786.72;;;14.41;52.65
69842;BME280;57138;51.326;-0.068;2023-05-03T10:56:22;100781.16;;;14.49;53.33
69842;BME280;57138;51.326;-0.068;2023-05-03T10:58:49;100785.13;;;14.53;53.23
69842;BME280;57138;51.326;-0.068;2023-05-03T11:01:18;100776.34;;;14.72;54.01
69842;BME280;57138;51.326;-0.068;2023-05-03T11:03:55;100760.41;;;14.91;52.14
69842;BME280;57138;51.326;-0.068;2023-05-03T11:06:35;100766.00;;;14.89;51.54
69842;BME280;57138;51.326;-0.068;2023-05-03T11:09:03;100772.41;;;14.82;51.82
69842;BME280;57138;51.326;-0.068;2023-05-03T11:11:31;100764.53;;;14.80;52.84
69842;BME280;57138;51.326;-0.068;2023-05-03T11:13:57;100754.38;;;14.76;51.87
69842;BME280;57138;51.326;-0.068;2023-05-03T11:16:24;100774.88;;;14.77;51.95
69842;BME280;57138;51.326;-0.068;2023-05-03T11:18:51;100761.81;;;14.73;51.25
69842;BME280;57138;51.326;-0.068;2023-05-03T11:21:17;100749.56;;;14.64;52.98
69842;BME280;57138;51.326;-0.068;2023-05-03T11:23:43;100751.66;;;14.69;52.68
69842;BME280;57138;51.326;-0.068;2023-05-03T11:26:10;100755.41;;;14.68;52.42
69842;BME280;57138;51.326;-0.068;2023-05-03T11:28:40;100741.91;;;14.61;52.35
69842;BME280;57138;51.326;-0.068;2023-05-03T11:31:10;100739.16;;;14.48;53.40
69842;BME280;57138;51.326;-0.068;2023-05-03T11:33:38;100734.78;;;14.40;53.15
69842;BME280;57138;51.326;-0.068;2023-05-03T11:36:06;100751.53;;;14.42;52.87
69842;BME280;57138;51.326;-0.068;2023-05-03T11:38:35;100735.81;;;14.46;53.29
69842;BME280;57138;51.326;-0.068;2023-05-03T11:41:16;100731.78;;;14.63;53.52
69842;BME280;57138;51.326;-0.068;2023-05-03T11:43:46;100742.16;;;14.80;52.69
69842;BME280;57138;51.326;-0.068;2023-05-03T11:46:24;100727.91;;;14.86;51.39
69842;BME280;57138;51.326;-0.068;2023-05-03T11:48:51;100727.06;;;14.99;52.25
69842;BME280;57138;51.326;-0.068;2023-05-03T11:51:22;100714.06;;;15.09;53.14
69842;BME280;57138;51.326;-0.068;2023-05-03T11:53:49;100713.44;;;15.20;53.72
69842;BME280;57138;51.326;-0.068;2023-05-03T11:56:15;100720.88;;;15.25;52.32
69842;BME280;57138;51.326;-0.068;2023-05-03T11:58:54;100721.75;;;15.25;51.72
69842;BME280;57138;51.326;-0.068;2023-05-03T12:01:25;100687.94;;;15.09;52.69
69842;BME280;57138;51.326;-0.068;2023-05-03T12:04:02;100699.13;;;15.00;53.13
69842;BME280;57138;51.326;-0.068;2023-05-03T12:06:32;100700.34;;;14.97;52.69
69842;BME280;57138;51.326;-0.068;2023-05-03T12:08:59;100689.19;;;14.87;52.00
69842;BME280;57138;51.326;-0.068;2023-05-03T12:11:25;100695.78;;;14.91;53.53
69842;BME280;57138;51.326;-0.068;2023-05-03T12:14:09;100697.47;;;14.92;52.39
69842;BME280;57138;51.326;-0.068;2023-05-03T12:16:49;100690.00;;;14.94;53.15
69842;BME280;57138;51.326;-0.068;2023-05-03T12:19:28;100690.44;;;15.04;51.50
69842;BME280;57138;51.326;-0.068;2023-05-03T12:21:54;100688.34;;;15.06;52.90
69842;BME280;57138;51.326;-0.068;2023-05-03T12:24:19;100679.03;;;15.16;53.07
69842;BME280;57138;51.326;-0.068;2023-05-03T12:26:48;100674.69;;;15.28;53.14
69842;BME280;57138;51.326;-0.068;2023-05-03T12:29:14;100688.34;;;15.33;51.33
69842;BME280;57138;51.326;-0.068;2023-05-03T12:31:43;100675.09;;;15.32;52.30
69842;BME280;57138;51.326;-0.068;2023-05-03T12:34:09;100682.56;;;15.30;51.81
69842;BME280;57138;51.326;-0.068;2023-05-03T12:36:35;100668.06;;;15.24;51.61
69842;BME280;57138;51.326;-0.068;2023-05-03T12:39:01;100680.28;;;15.26;51.34
69842;BME280;57138;51.326;-0.068;2023-05-03T12:41:27;100670.56;;;15.25;52.11
69842;BME280;57138;51.326;-0.068;2023-05-03T12:43:59;100678.84;;;15.31;51.63
69842;BME280;57138;51.326;-0.068;2023-05-03T12:46:26;100667.44;;;15.35;51.75
69842;BME280;57138;51.326;-0.068;2023-05-03T12:48:52;100667.63;;;15.40;51.61
69842;BME280;57138;51.326;-0.068;2023-05-03T12:51:17;100668.66;;;15.39;50.69
69842;BME280;57138;51.326;-0.068;2023-05-03T12:53:43;100675.09;;;15.32;50.69
69842;BME280;57138;51.326;-0.068;2023-05-03T12:56:10;100655.00;;;15.21;51.78
69842;BME280;57138;51.326;-0.068;2023-05-03T12:58:36;100680.47;;;15.25;51.45
69842;BME280;57138;51.326;-0.068;2023-05-03T13:01:01;100666.41;;;15.23;50.67
69842;BME280;57138;51.326;-0.068;2023-05-03T13:03:27;100654.78;;;15.16;51.11